Observation data for Anton on 07/12/2020      Previous  Date       Current Mesonet Observations  Soil Data  Daily Summary Page  Observations in Plain Language
KAOS 120500Z 18012KT 31/09 A3001 RMK A01 T03130090  RH  026%=      5-min Rain = 0
KAOS 120505Z 18012KT 31/09 A30 RMK A01 T03100091  RH  026%=      5-min Rain = 0
KAOS 120510Z 18012KT 31/09 A30 RMK A01 T03080091  RH  027%=      5-min Rain = 0
KAOS 120515Z 18012KT 31/09 A30 RMK A01 T03060092  RH  027%=      5-min Rain = 0
KAOS 120520Z 19011KT 30/09 A3001 RMK A01 T03040092  RH  028%=      5-min Rain = 0
KAOS 120525Z 19009KT 30/09 A3001 RMK A01 T03020093  RH  028%=      5-min Rain = 0
KAOS 120530Z 21008KT 30/09 A3002 RMK A01 T02990094  RH  029%=      5-min Rain = 0
KAOS 120535Z 23006KT 30/10 A3003 RMK A01 T02990095  RH  029%=      5-min Rain = 0
KAOS 120540Z 29007KT 30/10 A3004 RMK A01 T02990095  RH  029%=      5-min Rain = 0
KAOS 120545Z 33008KT 29/10 A3004 RMK A01 T02930095  RH  030%=      5-min Rain = 0
KAOS 120550Z 35009KT 29/10 A3005 RMK A01 T02860095  RH  031%=      5-min Rain = 0
KAOS 120555Z 34008KT 29/09 A3006 RMK A01 T02850093  RH  031%=      5-min Rain = 0
KAOS 120600Z 34011KT 29/09 A3007 RMK A01 T02890091  RH  030%=      5-min Rain = 0
KAOS 120605Z 32010KT 30/09 A3008 RMK A01 T02970087  RH  028%=      5-min Rain = 0
KAOS 120610Z 30007KT 30/08 A3008 RMK A01 T03040082  RH  026%=      5-min Rain = 0
KAOS 120615Z 30012G17KT 32/08 A3007 RMK A01 T03230077  RH  022%=      5-min Rain = 0
KAOS 120620Z 27007G12KT 33/08 A3007 RMK A01 T03280076  RH  021%=      5-min Rain = 0
KAOS 120625Z 27010G15KT 33/08 A3007 RMK A01 T03250076  RH  022%=      5-min Rain = 0
KAOS 120630Z 28010KT 33/08 A3008 RMK A01 T03280075  RH  021%=      5-min Rain = 0
KAOS 120635Z 28008KT 32/08 A3008 RMK A01 T03210075  RH  022%=      5-min Rain = 0
KAOS 120640Z 28008KT 32/08 A3008 RMK A01 T03170075  RH  023%=      5-min Rain = 0
KAOS 120645Z 28006G11KT 31/08 A3008 RMK A01 T03110075  RH  024%=      5-min Rain = 0
KAOS 120650Z 30004KT 31/08 A3008 RMK A01 T03050075  RH  024%=      5-min Rain = 0
KAOS 120655Z 28003KT 30/08 A3008 RMK A01 T03010075  RH  025%=      5-min Rain = 0
KAOS 120700Z 31003KT 30/07 A3008 RMK A01 T02950074  RH  026%=      5-min Rain = 0
KAOS 120705Z 26002KT 30/08 A3008 RMK A01 T02970075  RH  026%=      5-min Rain = 0
KAOS 120710Z 26004KT 30/07 A3008 RMK A01 T02970073  RH  025%=      5-min Rain = 0
KAOS 120715Z 25003KT 29/07 A3008 RMK A01 T02850073  RH  027%=      5-min Rain = 0
KAOS 120720Z 24002KT 29/07 A3008 RMK A01 T02850074  RH  027%=      5-min Rain = 0
KAOS 120725Z 28002KT 29/08 A3008 RMK A01 T02910075  RH  026%=      5-min Rain = 0
KAOS 120730Z 25002KT 28/07 A3008 RMK A01 T02820072  RH  027%=      5-min Rain = 0
KAOS 120735Z 13000KT 28/07 A3008 RMK A01 T02770074  RH  028%=      5-min Rain = 0
KAOS 120740Z 35002G9KT 27/08 A3008 RMK A01 T02740075  RH  029%=      5-min Rain = 0
KAOS 120745Z 35009KT 27/08 A3008 RMK A01 T02670079  RH  031%=      5-min Rain = 0
KAOS 120750Z 03005KT 29/10 A3008 RMK A01 T02870096  RH  031%=      5-min Rain = 0
KAOS 120755Z 06009KT 29/10 A3007 RMK A01 T02900100  RH  032%=      5-min Rain = 0
KAOS 120800Z 07008KT 29/10 A3007 RMK A01 T02930103  RH  032%=      5-min Rain = 0
KAOS 120805Z 07007KT 29/10 A3007 RMK A01 T02870103  RH  033%=      5-min Rain = 0
KAOS 120810Z 07008KT 29/11 A3007 RMK A01 T02870105  RH  033%=      5-min Rain = 0
KAOS 120815Z 08004KT 29/11 A3007 RMK A01 T02850107  RH  034%=      5-min Rain = 0
KAOS 120820Z 09005KT 29/11 A3006 RMK A01 T02850107  RH  034%=      5-min Rain = 0
KAOS 120825Z 11005KT 28/11 A3006 RMK A01 T02800107  RH  035%=      5-min Rain = 0
KAOS 120830Z 12005KT 28/11 A3005 RMK A01 T02760108  RH  036%=      5-min Rain = 0
KAOS 120835Z 13005KT 27/11 A3005 RMK A01 T02720105  RH  036%=      5-min Rain = 0
KAOS 120840Z 12006KT 27/10 A3005 RMK A01 T02700101  RH  036%=      5-min Rain = 0
KAOS 120845Z 13004KT 27/10 A3005 RMK A01 T02700099  RH  035%=      5-min Rain = 0
KAOS 120850Z 15004KT 27/10 A3005 RMK A01 T02650097  RH  036%=      5-min Rain = 0
KAOS 120855Z 16003KT 26/10 A3004 RMK A01 T02610095  RH  036%=      5-min Rain = 0
KAOS 120900Z 17003KT 26/10 A3005 RMK A01 T02580097  RH  037%=      5-min Rain = 0
KAOS 120905Z 15004KT 26/10 A3004 RMK A01 T02570098  RH  038%=      5-min Rain = 0
KAOS 120910Z 17004KT 26/10 A3004 RMK A01 T02580096  RH  037%=      5-min Rain = 0
KAOS 120915Z 16004KT 26/09 A3004 RMK A01 T02560093  RH  037%=      5-min Rain = 0
KAOS 120920Z 17004KT 25/09 A3004 RMK A01 T02520090  RH  037%=      5-min Rain = 0
KAOS 120925Z 18005KT 25/09 A3004 RMK A01 T02520087  RH  036%=      5-min Rain = 0
KAOS 120930Z 18007KT 25/09 A3004 RMK A01 T02530087  RH  036%=      5-min Rain = 0
KAOS 120935Z 18007KT 25/09 A3004 RMK A01 T02480087  RH  037%=      5-min Rain = 0
KAOS 120940Z 18005KT 25/09 A3004 RMK A01 T02470087  RH  037%=      5-min Rain = 0
KAOS 120945Z 17002KT 25/09 A3004 RMK A01 T02500086  RH  036%=      5-min Rain = 0
KAOS 120950Z 18001KT 25/09 A3005 RMK A01 T02520086  RH  036%=      5-min Rain = 0
KAOS 120955Z 27001KT 26/09 A3005 RMK A01 T02570087  RH  035%=      5-min Rain = 0
KAOS 121000Z 27003KT 26/09 A3005 RMK A01 T02620087  RH  034%=      5-min Rain = 0
KAOS 121005Z 23004KT 26/09 A3005 RMK A01 T02630089  RH  034%=      5-min Rain = 0
KAOS 121010Z 18003KT 26/09 A3005 RMK A01 T02640090  RH  034%=      5-min Rain = 0
KAOS 121015Z 16005KT 26/09 A3005 RMK A01 T02630089  RH  034%=      5-min Rain = 0
KAOS 121020Z 17005KT 26/09 A3005 RMK A01 T02620089  RH  034%=      5-min Rain = 0
KAOS 121025Z 16005KT 26/09 A3005 RMK A01 T02610089  RH  035%=      5-min Rain = 0
KAOS 121030Z 16004KT 26/09 A3005 RMK A01 T02600088  RH  035%=      5-min Rain = 0
KAOS 121035Z 16003KT 26/09 A3005 RMK A01 T02590088  RH  035%=      5-min Rain = 0
KAOS 121040Z 16005KT 26/09 A3005 RMK A01 T02580089  RH  035%=      5-min Rain = 0
KAOS 121045Z 17006KT 26/09 A3005 RMK A01 T02560089  RH  036%=      5-min Rain = 0
KAOS 121050Z 17008KT 26/09 A3005 RMK A01 T02550088  RH  036%=      5-min Rain = 0
KAOS 121055Z 18008KT 25/09 A3006 RMK A01 T02530088  RH  036%=      5-min Rain = 0
KAOS 121100Z 18008KT 25/09 A3006 RMK A01 T02520089  RH  037%=      5-min Rain = 0
KAOS 121105Z 18007KT 25/09 A3006 RMK A01 T02500089  RH  037%=      5-min Rain = 0
KAOS 121110Z 18007KT 25/09 A3006 RMK A01 T02490089  RH  037%=      5-min Rain = 0
KAOS 121115Z 18007KT 25/09 A3006 RMK A01 T02470091  RH  038%=      5-min Rain = 0
KAOS 121120Z 18008KT 25/09 A3006 RMK A01 T02460092  RH  039%=      5-min Rain = 0
KAOS 121125Z 19009KT 24/09 A3006 RMK A01 T02440094  RH  040%=      5-min Rain = 0
KAOS 121130Z 19009KT 25/09 A3006 RMK A01 T02480093  RH  039%=      5-min Rain = 0
KAOS 121135Z 20008KT 25/09 A3006 RMK A01 T02520092  RH  037%=      5-min Rain = 0
KAOS 121140Z 20007KT 25/09 A3006 RMK A01 T02530092  RH  037%=      5-min Rain = 0
KAOS 121145Z 21007KT 25/09 A3006 RMK A01 T02520092  RH  037%=      5-min Rain = 0
KAOS 121150Z 21008KT 25/09 A3006 RMK A01 T02520092  RH  037%=      5-min Rain = 0
KAOS 121155Z 21008KT 25/09 A3006 RMK A01 T02530093  RH  037%=      5-min Rain = 0
KAOS 121200Z 22007KT 25/09 A3006 RMK A01 T02500093  RH  038%=      5-min Rain = 0
KAOS 121205Z 22007KT 25/09 A3006 RMK A01 T02490094  RH  039%=      5-min Rain = 0
KAOS 121210Z 22006KT 25/09 A3006 RMK A01 T02490094  RH  039%=      5-min Rain = 0
KAOS 121215Z 22005KT 25/10 A3006 RMK A01 T02490096  RH  039%=      5-min Rain = 0
KAOS 121220Z 21004KT 25/10 A3006 RMK A01 T02480097  RH  040%=      5-min Rain = 0
KAOS 121225Z 20004KT 25/10 A3006 RMK A01 T02470097  RH  040%=      5-min Rain = 0
KAOS 121230Z 19003KT 25/10 A3007 RMK A01 T02470097  RH  040%=      5-min Rain = 0
KAOS 121235Z 15002KT 25/10 A3007 RMK A01 T02450096  RH  040%=      5-min Rain = 0
KAOS 121240Z 14002KT 24/10 A3007 RMK A01 T02440098  RH  041%=      5-min Rain = 0
KAOS 121245Z 14002KT 25/10 A3007 RMK A01 T02450098  RH  041%=      5-min Rain = 0
KAOS 121250Z 11002KT 25/10 A3008 RMK A01 T02480097  RH  040%=      5-min Rain = 0
KAOS 121255Z 11001KT 25/10 A3008 RMK A01 T02500097  RH  039%=      5-min Rain = 0
KAOS 121300Z 00000KT 25/10 A3008 RMK A01 T02530097  RH  038%=      5-min Rain = 0
KAOS 121305Z 00001KT 26/10 A3009 RMK A01 T02560098  RH  038%=      5-min Rain = 0
KAOS 121310Z 02002KT 26/10 A3009 RMK A01 T02570102  RH  039%=      5-min Rain = 0
KAOS 121315Z 07002KT 26/11 A3009 RMK A01 T02560108  RH  041%=      5-min Rain = 0
KAOS 121320Z 10003KT 26/10 A3009 RMK A01 T02570103  RH  039%=      5-min Rain = 0
KAOS 121325Z 10004KT 26/10 A3009 RMK A01 T02600103  RH  039%=      5-min Rain = 0
KAOS 121330Z 10004KT 26/11 A3009 RMK A01 T02590112  RH  041%=      5-min Rain = 0
KAOS 121335Z 12003KT 26/12 A3009 RMK A01 T02590116  RH  042%=      5-min Rain = 0
KAOS 121340Z 13005KT 26/12 A3009 RMK A01 T02590121  RH  044%=      5-min Rain = 0
KAOS 121345Z 13008KT 26/12 A3009 RMK A01 T02610117  RH  042%=      5-min Rain = 0
KAOS 121350Z 12008KT 27/11 A3009 RMK A01 T02700110  RH  038%=      5-min Rain = 0
KAOS 121355Z 12009KT 27/11 A301 RMK A01 T02710112  RH  038%=      5-min Rain = 0
KAOS 121400Z 13013G18KT 27/11 A301 RMK A01 T02710112  RH  038%=      5-min Rain = 0
KAOS 121405Z 14013KT 27/11 A301 RMK A01 T02740112  RH  038%=      5-min Rain = 0
KAOS 121410Z 14014KT 28/11 A301 RMK A01 T02770112  RH  037%=      5-min Rain = 0
KAOS 121415Z 13015KT 28/11 A301 RMK A01 T02830109  RH  035%=      5-min Rain = 0
KAOS 121420Z 14013G18KT 29/11 A301 RMK A01 T02850109  RH  035%=      5-min Rain = 0
KAOS 121425Z 13014KT 29/11 A301 RMK A01 T02880109  RH  034%=      5-min Rain = 0
KAOS 121430Z 13015G21KT 29/11 A301 RMK A01 T02920108  RH  033%=      5-min Rain = 0
KAOS 121435Z 13016G22KT 30/11 A301 RMK A01 T02980109  RH  032%=      5-min Rain = 0
KAOS 121440Z 12015G20KT 30/11 A301 RMK A01 T03020110  RH  032%=      5-min Rain = 0
KAOS 121445Z 13016G21KT 31/11 A301 RMK A01 T03070111  RH  031%=      5-min Rain = 0
KAOS 121450Z 13020G26KT 31/11 A3009 RMK A01 T03070111  RH  031%=      5-min Rain = 0
KAOS 121455Z 14020G26KT 31/11 A3009 RMK A01 T03060113  RH  032%=      5-min Rain = 0
KAOS 121500Z 14020G26KT 31/11 A3009 RMK A01 T03090112  RH  031%=      5-min Rain = 0
KAOS 121505Z 15020G26KT 31/11 A3008 RMK A01 T03130107  RH  029%=      5-min Rain = 0
KAOS 121510Z 15023G30KT 31/10 A3008 RMK A01 T03140103  RH  028%=      5-min Rain = 0
KAOS 121515Z 15024G30KT 31/10 A3008 RMK A01 T03130100  RH  028%=      5-min Rain = 0
KAOS 121520Z 16022G27KT 32/10 A3008 RMK A01 T03150103  RH  028%=      5-min Rain = 0
KAOS 121525Z 16023G28KT 32/10 A3007 RMK A01 T03160104  RH  028%=      5-min Rain = 0
KAOS 121530Z 16023KT 32/11 A3007 RMK A01 T03200105  RH  028%=      5-min Rain = 0
KAOS 121535Z 16021KT 33/11 A3007 RMK A01 T03250107  RH  027%=      5-min Rain = 0
KAOS 121540Z 16021KT 33/11 A3007 RMK A01 T03290107  RH  027%=      5-min Rain = 0
KAOS 121545Z 15021KT 33/11 A3007 RMK A01 T03300107  RH  026%=      5-min Rain = 0
KAOS 121550Z 17020G25KT 33/11 A3007 RMK A01 T03320106  RH  026%=      5-min Rain = 0
KAOS 121555Z 17020G25KT 34/11 A3007 RMK A01 T03350106  RH  025%=      5-min Rain = 0
KAOS 121600Z 17019KT 34/11 A3006 RMK A01 T03390106  RH  025%=      5-min Rain = 0
KAOS 121605Z 17020KT 34/10 A3006 RMK A01 T03440101  RH  023%=      5-min Rain = 0
KAOS 121610Z 17020G25KT 34/10 A3006 RMK A01 T03440100  RH  023%=      5-min Rain = 0
KAOS 121615Z 16020KT 34/10 A3006 RMK A01 T03430099  RH  023%=      5-min Rain = 0
KAOS 121620Z 17020G25KT 34/10 A3006 RMK A01 T03430099  RH  023%=      5-min Rain = 0
KAOS 121625Z 17019G24KT 35/10 A3006 RMK A01 T03460101  RH  023%=      5-min Rain = 0
KAOS 121630Z 17019G25KT 35/10 A3006 RMK A01 T03460101  RH  023%=      5-min Rain = 0
KAOS 121635Z 17019G25KT 35/10 A3006 RMK A01 T03510102  RH  023%=      5-min Rain = 0
KAOS 121640Z 16018G23KT 35/10 A3006 RMK A01 T03500101  RH  023%=      5-min Rain = 0
KAOS 121645Z 17018G24KT 35/10 A3006 RMK A01 T03520101  RH  022%=      5-min Rain = 0
KAOS 121650Z 17018G25KT 36/10 A3006 RMK A01 T03560101  RH  022%=      5-min Rain = 0
KAOS 121655Z 17017G22KT 36/10 A3005 RMK A01 T03600103  RH  022%=      5-min Rain = 0
KAOS 121700Z 16017G23KT 36/10 A3005 RMK A01 T03620100  RH  021%=      5-min Rain = 0
KAOS 121705Z 17018G24KT 37/10 A3005 RMK A01 T03660096  RH  020%=      5-min Rain = 0
KAOS 121710Z 17019G26KT 36/09 A3005 RMK A01 T03640094  RH  020%=      5-min Rain = 0
KAOS 121715Z 17019KT 37/09 A3005 RMK A01 T03660089  RH  019%=      5-min Rain = 0
KAOS 121720Z 17019G25KT 37/09 A3005 RMK A01 T03710093  RH  019%=      5-min Rain = 0
KAOS 121725Z 16019G24KT 37/09 A3004 RMK A01 T03700094  RH  019%=      5-min Rain = 0
KAOS 121730Z 17020G26KT 37/09 A3004 RMK A01 T03710089  RH  019%=      5-min Rain = 0
KAOS 121735Z 18020KT 37/09 A3004 RMK A01 T03740089  RH  018%=      5-min Rain = 0
KAOS 121740Z 18020KT 38/09 A3004 RMK A01 T03760086  RH  018%=      5-min Rain = 0
KAOS 121745Z 18021KT 38/08 A3004 RMK A01 T03780079  RH  017%=      5-min Rain = 0
KAOS 121750Z 17019G25KT 38/09 A3004 RMK A01 T03800086  RH  017%=      5-min Rain = 0
KAOS 121755Z 17021G27KT 38/08 A3004 RMK A01 T03780083  RH  017%=      5-min Rain = 0
KAOS 121800Z 17021G27KT 38/08 A3003 RMK A01 T03800080  RH  017%=      5-min Rain = 0
KAOS 121805Z 17022G29KT 38/08 A3003 RMK A01 T03830080  RH  016%=      5-min Rain = 0
KAOS 121810Z 17020G25KT 38/08 A3003 RMK A01 T03830083  RH  017%=      5-min Rain = 0
KAOS 121815Z 18021G26KT 39/08 A3003 RMK A01 T03860075  RH  016%=      5-min Rain = 0
KAOS 121820Z 18021G28KT 39/07 A3003 RMK A01 T03850074  RH  016%=      5-min Rain = 0
KAOS 121825Z 18021G27KT 39/07 A3002 RMK A01 T03880071  RH  015%=      5-min Rain = 0
KAOS 121830Z 17021G27KT 39/07 A3002 RMK A01 T03890070  RH  015%=      5-min Rain = 0
KAOS 121835Z 17020G27KT 39/06 A3002 RMK A01 T03910062  RH  014%=      5-min Rain = 0
KAOS 121840Z 17021G26KT 39/07 A3002 RMK A01 T03930066  RH  014%=      5-min Rain = 0
KAOS 121845Z 17020G28KT 39/06 A3001 RMK A01 T03930063  RH  014%=      5-min Rain = 0
KAOS 121850Z 17021G28KT 39/06 A3001 RMK A01 T03920060  RH  014%=      5-min Rain = 0
KAOS 121855Z 18022G29KT 39/06 A3001 RMK A01 T03900057  RH  013%=      5-min Rain = 0
KAOS 121900Z 17021G32KT 39/05 A3001 RMK A01 T03920048  RH  012%=      5-min Rain = 0
KAOS 121905Z 18020G30KT 39/05 A30 RMK A01 T03910053  RH  013%=      5-min Rain = 0
KAOS 121910Z 18019G29KT 40/06 A30 RMK A01 T03970055  RH  013%=      5-min Rain = 0
KAOS 121915Z 18021G27KT 40/06 A30 RMK A01 T03980055  RH  013%=      5-min Rain = 0
KAOS 121920Z 18018G24KT 40/05 A30 RMK A01 T03980050  RH  012%=      5-min Rain = 0
KAOS 121925Z 19021G28KT 40/05 A2999 RMK A01 T03960050  RH  012%=      5-min Rain = 0
KAOS 121930Z 18019G29KT 40/05 A2999 RMK A01 T04000053  RH  012%=      5-min Rain = 0
KAOS 121935Z 18023G31KT 40/05 A2999 RMK A01 T03950051  RH  012%=      5-min Rain = 0
KAOS 121940Z 17020G33KT 40/05 A2999 RMK A01 T03980048  RH  012%=      5-min Rain = 0
KAOS 121945Z 18020G28KT 40/05 A2999 RMK A01 T03990048  RH  012%=      5-min Rain = 0
KAOS 121950Z 18021G27KT 40/04 A2999 RMK A01 T03990044  RH  012%=      5-min Rain = 0
KAOS 121955Z 19018G25KT 40/05 A2999 RMK A01 T03970048  RH  012%=      5-min Rain = 0
KAOS 122000Z 19019G26KT 40/05 A2998 RMK A01 T03990048  RH  012%=      5-min Rain = 0
KAOS 122005Z 19018G25KT 40/04 A2998 RMK A01 T04030041  RH  011%=      5-min Rain = 0
KAOS 122010Z 18021G28KT 40/04 A2998 RMK A01 T04030042  RH  011%=      5-min Rain = 0
KAOS 122015Z 17019G26KT 40/05 A2998 RMK A01 T03980045  RH  012%=      5-min Rain = 0
KAOS 122020Z 18021G27KT 40/05 A2997 RMK A01 T04030046  RH  012%=      5-min Rain = 0
KAOS 122025Z 18017G25KT 40/05 A2998 RMK A01 T04020048  RH  012%=      5-min Rain = 0
KAOS 122030Z 18019G26KT 40/05 A2997 RMK A01 T04030045  RH  011%=      5-min Rain = 0
KAOS 122035Z 18017G24KT 40/05 A2997 RMK A01 T04040049  RH  012%=      5-min Rain = 0
KAOS 122040Z 20020G26KT 41/05 A2997 RMK A01 T04080049  RH  012%=      5-min Rain = 0
KAOS 122045Z 20018G27KT 40/05 A2997 RMK A01 T04040046  RH  012%=      5-min Rain = 0
KAOS 122050Z 18017G27KT 41/05 A2997 RMK A01 T04080048  RH  011%=      5-min Rain = 0
KAOS 122055Z 18019G25KT 41/05 A2996 RMK A01 T04060049  RH  012%=      5-min Rain = 0
KAOS 122100Z 18019G31KT 41/05 A2996 RMK A01 T04050050  RH  012%=      5-min Rain = 0
KAOS 122105Z 17018G24KT 41/05 A2996 RMK A01 T04060047  RH  011%=      5-min Rain = 0
KAOS 122110Z 18017KT 41/05 A2995 RMK A01 T04090048  RH  011%=      5-min Rain = 0
KAOS 122115Z 17017G24KT 41/05 A2995 RMK A01 T04090050  RH  012%=      5-min Rain = 0
KAOS 122120Z 18019G24KT 41/05 A2995 RMK A01 T04070051  RH  012%=      5-min Rain = 0
KAOS 122125Z 19022G31KT 41/05 A2994 RMK A01 T04080048  RH  011%=      5-min Rain = 0
KAOS 122130Z 20017G25KT 41/05 A2994 RMK A01 T04080049  RH  011%=      5-min Rain = 0
KAOS 122135Z 18022G28KT 41/05 A2994 RMK A01 T04110045  RH  011%=      5-min Rain = 0
KAOS 122140Z 18018G25KT 41/04 A2994 RMK A01 T04080042  RH  011%=      5-min Rain = 0
KAOS 122145Z 18020G28KT 41/04 A2994 RMK A01 T04090043  RH  011%=      5-min Rain = 0
KAOS 122150Z 18020G27KT 41/04 A2994 RMK A01 T04100041  RH  011%=      5-min Rain = 0
KAOS 122155Z 19021G29KT 41/04 A2993 RMK A01 T04100042  RH  011%=      5-min Rain = 0
KAOS 122200Z 18020G26KT 41/04 A2993 RMK A01 T04110040  RH  011%=      5-min Rain = 0
KAOS 122205Z 18019G29KT 41/04 A2993 RMK A01 T04110040  RH  011%=      5-min Rain = 0
KAOS 122210Z 18022G27KT 41/04 A2993 RMK A01 T04090038  RH  011%=      5-min Rain = 0
KAOS 122215Z 18019G26KT 41/04 A2993 RMK A01 T04100038  RH  010%=      5-min Rain = 0
KAOS 122220Z 18020G26KT 41/04 A2993 RMK A01 T04090038  RH  011%=      5-min Rain = 0
KAOS 122225Z 19019G27KT 41/04 A2993 RMK A01 T04070036  RH  011%=      5-min Rain = 0
KAOS 122230Z 17018G24KT 41/03 A2992 RMK A01 T04060034  RH  010%=      5-min Rain = 0
KAOS 122235Z 18017G23KT 41/04 A2992 RMK A01 T04110035  RH  010%=      5-min Rain = 0
KAOS 122240Z 18019G24KT 41/03 A2992 RMK A01 T04130033  RH  010%=      5-min Rain = 0
KAOS 122245Z 19021G28KT 41/03 A2992 RMK A01 T04070029  RH  010%=      5-min Rain = 0
KAOS 122250Z 19018G25KT 41/03 A2992 RMK A01 T04070030  RH  010%=      5-min Rain = 0
KAOS 122255Z 18019G25KT 41/03 A2992 RMK A01 T04080031  RH  010%=      5-min Rain = 0
KAOS 122300Z 18021G26KT 41/03 A2992 RMK A01 T04080031  RH  010%=      5-min Rain = 0
KAOS 122305Z 18020G27KT 41/03 A2991 RMK A01 T04070031  RH  010%=      5-min Rain = 0
KAOS 122310Z 19022G29KT 41/03 A2991 RMK A01 T04050027  RH  010%=      5-min Rain = 0
KAOS 122315Z 18019KT 41/03 A2991 RMK A01 T04060029  RH  010%=      5-min Rain = 0
KAOS 122320Z 19021G29KT 40/03 A2991 RMK A01 T04040026  RH  010%=      5-min Rain = 0
KAOS 122325Z 18021G26KT 40/02 A2991 RMK A01 T04030024  RH  010%=      5-min Rain = 0
KAOS 122330Z 18016G23KT 41/03 A2991 RMK A01 T04060028  RH  010%=      5-min Rain = 0
KAOS 122335Z 18019KT 40/03 A2991 RMK A01 T04040027  RH  010%=      5-min Rain = 0
KAOS 122340Z 18021G27KT 40/03 A2991 RMK A01 T04030026  RH  010%=      5-min Rain = 0
KAOS 122345Z 18021G26KT 40/03 A2991 RMK A01 T04030026  RH  010%=      5-min Rain = 0
KAOS 122350Z 17021G28KT 40/02 A299 RMK A01 T04010024  RH  010%=      5-min Rain = 0
KAOS 122355Z 18021G26KT 40/02 A299 RMK A01 T04010022  RH  010%=      5-min Rain = 0
KAOS 130000Z 18018G23KT 40/02 A2991 RMK A01 T04010023  RH  010%=      5-min Rain = 0
KAOS 130005Z 18020G27KT 40/02 A299 RMK A01 T03990024  RH  010%=      5-min Rain = 0
KAOS 130010Z 18021G27KT 40/02 A299 RMK A01 T03970023  RH  010%=      5-min Rain = 0
KAOS 130015Z 18021G27KT 40/02 A299 RMK A01 T03960020  RH  010%=      5-min Rain = 0
KAOS 130020Z 18021G26KT 40/02 A299 RMK A01 T03950019  RH  010%=      5-min Rain = 0
KAOS 130025Z 18020G25KT 40/02 A299 RMK A01 T03950019  RH  010%=      5-min Rain = 0
KAOS 130030Z 18021G26KT 39/02 A299 RMK A01 T03940016  RH  010%=      5-min Rain = 0
KAOS 130035Z 18020G27KT 39/02 A299 RMK A01 T03930017  RH  010%=      5-min Rain = 0
KAOS 130040Z 18018KT 39/02 A2991 RMK A01 T03920019  RH  010%=      5-min Rain = 0
KAOS 130045Z 17020G26KT 39/02 A2991 RMK A01 T03910019  RH  010%=      5-min Rain = 0
KAOS 130050Z 17020G26KT 39/02 A2991 RMK A01 T03900017  RH  010%=      5-min Rain = 0
KAOS 130055Z 17020G25KT 39/02 A2991 RMK A01 T03890017  RH  010%=      5-min Rain = 0
KAOS 130100Z 18018G24KT 39/02 A2991 RMK A01 T03870019  RH  010%=      5-min Rain = 0
KAOS 130105Z 18017G23KT 38/02 A2991 RMK A01 T03840019  RH  010%=      5-min Rain = 0
KAOS 130110Z 17017G23KT 38/02 A2991 RMK A01 T03800016  RH  011%=      5-min Rain = 0
KAOS 130115Z 18017G23KT 38/02 A2991 RMK A01 T03770017  RH  011%=      5-min Rain = 0
KAOS 130120Z 17017G23KT 38/02 A2991 RMK A01 T03760017  RH  011%=      5-min Rain = 0
KAOS 130125Z 17016KT 37/02 A2991 RMK A01 T03740016  RH  011%=      5-min Rain = 0
KAOS 130130Z 17015KT 37/02 A2992 RMK A01 T03700017  RH  011%=      5-min Rain = 0
KAOS 130135Z 17013KT 37/02 A2992 RMK A01 T03670018  RH  011%=      5-min Rain = 0
KAOS 130140Z 17012G17KT 36/02 A2992 RMK A01 T03630020  RH  012%=      5-min Rain = 0
KAOS 130145Z 17012KT 36/02 A2991 RMK A01 T03600020  RH  012%=      5-min Rain = 0
KAOS 130150Z 18012KT 36/02 A2992 RMK A01 T03570020  RH  012%=      5-min Rain = 0
KAOS 130155Z 17011KT 35/02 A2991 RMK A01 T03530022  RH  013%=      5-min Rain = 0
KAOS 130200Z 18011KT 35/02 A2991 RMK A01 T03480023  RH  013%=      5-min Rain = 0
KAOS 130205Z 18011KT 35/02 A2992 RMK A01 T03450024  RH  013%=      5-min Rain = 0
KAOS 130210Z 17010KT 34/03 A2992 RMK A01 T03410025  RH  014%=      5-min Rain = 0
KAOS 130215Z 17010KT 34/03 A2992 RMK A01 T03380026  RH  014%=      5-min Rain = 0
KAOS 130220Z 18009KT 33/03 A2992 RMK A01 T03330027  RH  015%=      5-min Rain = 0
KAOS 130225Z 18009KT 33/03 A2992 RMK A01 T03280028  RH  015%=      5-min Rain = 0
KAOS 130230Z 18009KT 33/03 A2992 RMK A01 T03260029  RH  016%=      5-min Rain = 0
KAOS 130235Z 17009KT 32/03 A2992 RMK A01 T03240029  RH  016%=      5-min Rain = 0
KAOS 130240Z 17009KT 32/03 A2992 RMK A01 T03210029  RH  016%=      5-min Rain = 0
KAOS 130245Z 17009KT 32/03 A2992 RMK A01 T03190029  RH  016%=      5-min Rain = 0
KAOS 130250Z 17009KT 32/03 A2992 RMK A01 T03170029  RH  016%=      5-min Rain = 0
KAOS 130255Z 17009KT 32/03 A2992 RMK A01 T03150028  RH  016%=      5-min Rain = 0
KAOS 130300Z 17008KT 31/03 A2992 RMK A01 T03130028  RH  017%=      5-min Rain = 0
KAOS 130305Z 17009KT 31/03 A2992 RMK A01 T03110028  RH  017%=      5-min Rain = 0
KAOS 130310Z 17009KT 31/03 A2992 RMK A01 T03100029  RH  017%=      5-min Rain = 0
KAOS 130315Z 17009KT 31/03 A2992 RMK A01 T03110029  RH  017%=      5-min Rain = 0
KAOS 130320Z 17009KT 31/03 A2993 RMK A01 T03100029  RH  017%=      5-min Rain = 0
KAOS 130325Z 16008KT 31/03 A2993 RMK A01 T03070028  RH  017%=      5-min Rain = 0
KAOS 130330Z 16008KT 30/03 A2993 RMK A01 T03030028  RH  018%=      5-min Rain = 0
KAOS 130335Z 16008KT 30/03 A2993 RMK A01 T03010028  RH  018%=      5-min Rain = 0
KAOS 130340Z 17008KT 30/03 A2993 RMK A01 T02990029  RH  018%=      5-min Rain = 0
KAOS 130345Z 17009KT 30/03 A2993 RMK A01 T03000030  RH  018%=      5-min Rain = 0
KAOS 130350Z 18009KT 30/03 A2993 RMK A01 T03000033  RH  019%=      5-min Rain = 0
KAOS 130355Z 18009KT 30/03 A2994 RMK A01 T02990034  RH  019%=      5-min Rain = 0
KAOS 130400Z 18008KT 30/03 A2994 RMK A01 T02960034  RH  019%=      5-min Rain = 0
KAOS 130405Z 18008KT 29/04 A2994 RMK A01 T02940035  RH  019%=      5-min Rain = 0
KAOS 130410Z 18007KT 29/04 A2995 RMK A01 T02930035  RH  020%=      5-min Rain = 0
KAOS 130415Z 19006KT 29/04 A2995 RMK A01 T02910036  RH  020%=      5-min Rain = 0
KAOS 130420Z 27007KT 29/03 A2996 RMK A01 T02850033  RH  020%=      5-min Rain = 0
KAOS 130425Z 30010KT 28/04 A2997 RMK A01 T02820035  RH  021%=      5-min Rain = 0
KAOS 130430Z 27007G12KT 29/04 A2998 RMK A01 T02920036  RH  020%=      5-min Rain = 0
KAOS 130435Z 24008KT 30/04 A2998 RMK A01 T03020035  RH  019%=      5-min Rain = 0
KAOS 130440Z 25008KT 31/03 A2998 RMK A01 T03080034  RH  018%=      5-min Rain = 0
KAOS 130445Z 27010KT 31/03 A2999 RMK A01 T03050034  RH  018%=      5-min Rain = 0
KAOS 130450Z 29008KT 30/03 A2999 RMK A01 T02990034  RH  019%=      5-min Rain = 0
KAOS 130455Z 28007KT 30/03 A2999 RMK A01 T02970034  RH  019%=      5-min Rain = 0

Page generated in 0.0239 seconds.